Osterville, MA (02655)

3:08 AM EDT on July 28, 2017 (GMT -0400)
| | Change Station

Elev -9999 ft 0.00 °N, 0.00 °E | Updated 19 minutes ago

Overcast
Overcast
°F
Feels Like °F
N
Wind Variable Wind from North
Gusts mph

Today
High -- | Low -- °F
--% Chance of Precip.
Yesterday
High -- | Low -- °F
Precip. -- in
Pressure 29.84 in
Visibility 10.0 miles
Clouds Mostly Cloudy 900 ft
Mostly Cloudy 1200 ft
Overcast 1800 ft
Dew Point Not available.
Humidity Not available.
Rainfall --
Snow Depth Not available.
5:32 AM 8:03 PM
Waxing Crescent, 27% visible
METAR KHYA 280656Z AUTO 24010KT 10SM BKN009 BKN012 OVC018 21/20 A2984 RMK AO2 SLP105 T02110200
Pressure 29.84 in
Visibility 10.0 miles
Clouds Mostly Cloudy 900 ft
Mostly Cloudy 1200 ft
Overcast 1800 ft
Dew Point Not available.
Humidity Not available.
Rainfall --
Snow Depth Not available.
5:32 AM 8:03 PM
Waxing Crescent, 27% visible
METAR KHYA 280656Z AUTO 24010KT 10SM BKN009 BKN012 OVC018 21/20 A2984 RMK AO2 SLP105 T02110200

Get Severe Weather Alerts

Thanks for signing up!

Be on the lookout for a verification email in your inbox.

You'll start receiving the daily forecast at 6 AM.

×

10-Day Weather Forecast

Almanac

Astronomy

Jul. 28, 2017 Rise Set
Actual Time
Civil Twilight
Nautical Twilight
Astronomical Twilight
Moon
Length of Visible Light
Length of Day
Tomorrow will be .
, % of the Moon is Illuminated

Today's Extremes

State Highs State Lows

Community

WunderPhotos

Category 6

Welcome to Category 6. This is the collective home for Weather Underground's featured writeups by Dr. Jeff Masters (right), Bob Henson (left), Chris Burt, and other regular contributors.

Nearby

Air Quality

  Air Quality AQ Index Pollutant
Not available.

Snow Depth

Station Depth Elevation

Earthquake Activity

City Distance Mag. Time & Date
Minimum magnitude displayed is 2.5.

Coastal Water Temperatures

Place Temperature

Stations

Nearby Weather Stations

Station Location Temp. Windchill Dew Point Humidity Wind Precip. Elev Updated Type
                   

Watches & Warnings

There are currently no watches in effect.